Time;durP1;ratioP1;P1;durP2;ratioP2;P2;SDS_P1;SDS_P2;PMS_P1;PMS_P2;Temp;Humidity;BMP_temperature;BMP_pressure;BME280_temperature;BME280_humidity;BME280_pressure;Samples;Min_cycle;Max_cycle;Signal;HPM_P1;HPM_P2
2021/08/24 00:00:43;;;;;;;3.55;2.05;;;19.90;99.90;;;;;;5070589;28;20053;-72
2021/08/24 00:03:09;;;;;;;4.70;2.80;;;19.90;99.90;;;;;;5072876;28;20106;-72
2021/08/24 00:05:37;;;;;;;4.50;2.53;;;19.90;99.90;;;;;;5072898;28;20028;-74
2021/08/24 00:08:05;;;;;;;4.65;2.70;;;19.90;99.90;;;;;;5072842;28;20029;-71
2021/08/24 00:10:36;;;;;;;3.83;2.85;;;19.90;99.90;;;;;;5072784;28;20074;-73
2021/08/24 00:13:03;;;;;;;5.28;2.80;;;19.90;99.90;;;;;;5072556;28;20025;-70
2021/08/24 00:15:28;;;;;;;5.05;2.92;;;19.90;99.90;;;;;;5072827;28;20054;-69
2021/08/24 00:17:55;;;;;;;3.63;2.47;;;19.90;99.90;;;;;;5072763;28;20024;-71
2021/08/24 00:20:22;;;;;;;3.55;2.38;;;19.90;99.90;;;;;;5072425;28;20104;-69
2021/08/24 00:22:48;;;;;;;4.30;2.58;;;19.90;99.90;;;;;;5072636;28;20031;-71
2021/08/24 00:25:14;;;;;;;4.03;2.58;;;19.90;99.90;;;;;;5072730;28;20055;-70
2021/08/24 00:27:40;;;;;;;3.08;2.78;;;19.90;99.90;;;;;;5054608;28;20380;-71
2021/08/24 00:30:08;;;;;;;4.55;2.70;;;20.00;99.90;;;;;;5054581;28;20035;-69
2021/08/24 00:32:34;;;;;;;4.93;2.90;;;19.90;99.90;;;;;;5054590;28;20032;-71
2021/08/24 00:35:00;;;;;;;4.22;2.83;;;20.00;99.90;;;;;;5072606;28;20434;-69
2021/08/24 00:37:26;;;;;;;3.30;2.33;;;20.10;99.90;;;;;;5072587;28;20048;-69
2021/08/24 00:39:52;;;;;;;5.65;2.90;;;20.00;99.90;;;;;;5072268;28;20016;-68
2021/08/24 00:42:19;;;;;;;4.75;2.83;;;20.00;99.90;;;;;;5072406;28;20040;-72
2021/08/24 00:44:47;;;;;;;6.20;2.92;;;19.90;99.90;;;;;;5054473;28;20032;-71
2021/08/24 00:47:22;;;;;;;7.30;2.72;;;20.00;99.90;;;;;;5072377;28;20461;-69
2021/08/24 00:49:49;;;;;;;6.40;2.78;;;20.00;99.90;;;;;;5072494;28;20024;-69
2021/08/24 00:52:19;;;;;;;4.85;2.80;;;20.00;99.90;;;;;;5072394;28;20064;-69
2021/08/24 00:54:45;;;;;;;3.25;2.95;;;20.00;99.90;;;;;;5054279;28;20080;-69
2021/08/24 00:57:16;;;;;;;5.03;3.00;;;20.00;99.90;;;;;;5072416;28;20033;-68
2021/08/24 00:59:41;;;;;;;4.43;2.70;;;20.00;99.90;;;;;;5074876;28;20059;-69
2021/08/24 01:02:10;;;;;;;4.18;2.70;;;20.00;99.90;;;;;;5057447;28;20044;-69
2021/08/24 01:04:37;;;;;;;5.50;2.85;;;20.00;99.90;;;;;;5075804;28;20411;-69
2021/08/24 01:07:19;;;;;;;3.92;3.22;;;20.00;99.90;;;;;;5057875;28;20074;-68
2021/08/24 01:09:55;;;;;;;4.45;2.80;;;20.00;99.90;;;;;;5075838;28;20100;-70
2021/08/24 01:12:51;;;;;;;4.97;3.00;;;20.00;99.90;;;;;;5075796;28;20427;-70
2021/08/24 01:15:26;;;;;;;4.97;3.33;;;19.90;99.90;;;;;;5075660;28;20051;-72
2021/08/24 01:18:04;;;;;;;3.80;3.33;;;20.00;99.90;;;;;;5075682;28;20052;-70
2021/08/24 01:20:35;;;;;;;6.97;3.28;;;19.90;99.90;;;;;;5075806;28;20062;-71
2021/08/24 01:23:34;;;;;;;3.42;3.13;;;19.90;99.90;;;;;;5075091;28;20040;-69
2021/08/24 01:26:06;;;;;;;3.70;3.00;;;19.90;99.90;;;;;;5075306;28;20402;-70
2021/08/24 01:29:01;;;;;;;2.90;2.70;;;19.90;99.90;;;;;;5075474;28;20021;-72
2021/08/24 01:31:54;;;;;;;4.80;3.13;;;;;;;;;;5057413;28;20032;-70
2021/08/24 01:34:25;;;;;;;3.70;3.13;;;19.80;99.90;;;;;;5075400;28;20024;-68
2021/08/24 01:37:06;;;;;;;4.07;3.40;;;19.80;99.90;;;;;;5075318;28;20032;-68
2021/08/24 01:39:41;;;;;;;3.63;3.33;;;19.70;99.90;;;;;;5075330;28;20033;-70
2021/08/24 01:42:16;;;;;;;3.40;3.10;;;19.70;99.90;;;;;;5075148;28;20036;-70
2021/08/24 01:45:01;;;;;;;4.10;2.83;;;19.60;99.90;;;;;;5057168;28;20111;-68
2021/08/24 01:47:48;;;;;;;3.40;3.03;;;19.60;99.90;;;;;;5056418;28;20032;-69
2021/08/24 01:50:39;;;;;;;3.17;2.85;;;19.60;99.90;;;;;;5075068;28;20449;-69
2021/08/24 01:53:17;;;;;;;5.68;4.25;;;19.60;99.90;;;;;;5057046;28;20037;-72
2021/08/24 01:55:49;;;;;;;3.55;2.72;;;;;;;;;;5056953;28;20017;-69
2021/08/24 01:58:24;;;;;;;4.43;3.25;;;19.50;99.90;;;;;;5074893;28;20489;-68
2021/08/24 02:00:54;;;;;;;5.15;2.97;;;19.50;99.90;;;;;;5053253;28;20485;-70
2021/08/24 02:03:28;;;;;;;5.22;3.13;;;19.50;99.90;;;;;;5054884;28;20124;-70
2021/08/24 02:06:09;;;;;;;3.88;2.90;;;19.30;99.90;;;;;;5054806;28;20040;-73
2021/08/24 02:08:38;;;;;;;3.10;2.45;;;19.40;99.90;;;;;;5053499;28;20388;-69
2021/08/24 02:11:05;;;;;;;3.75;2.63;;;19.40;99.90;;;;;;5054740;28;20040;-68
2021/08/24 02:13:40;;;;;;;3.55;2.38;;;19.40;99.90;;;;;;5053353;28;20122;-69
2021/08/24 02:16:11;;;;;;;2.20;2.00;;;19.40;99.90;;;;;;5054649;28;20033;-70
2021/08/24 02:18:40;;;;;;;;;;;19.30;99.90;;;;;;5055038;28;20036;-70
2021/08/24 02:21:16;;;;;;;2.25;2.05;;;19.30;99.90;;;;;;5054419;28;19908;-72
2021/08/24 02:23:45;;;;;;;2.45;1.80;;;19.20;99.90;;;;;;5054472;28;20029;-70
2021/08/24 02:26:14;;;;;;;2.85;1.60;;;19.20;99.90;;;;;;5054189;28;20507;-69
2021/08/24 02:28:44;;;;;;;1.65;1.55;;;19.10;99.90;;;;;;5054357;28;20462;-68
2021/08/24 02:31:45;;;;;;;9.07;1.90;;;19.20;99.90;;;;;;5054376;28;20139;-69
2021/08/24 02:34:43;;;;;;;3.17;1.83;;;19.10;99.90;;;;;;5054326;28;20377;-69
2021/08/24 02:37:23;;;;;;;8.40;1.65;;;19.10;99.90;;;;;;5054192;28;20025;-68
2021/08/24 02:40:04;;;;;;;4.53;1.65;;;19.00;99.90;;;;;;5052919;28;20117;-68
2021/08/24 02:42:50;;;;;;;3.85;1.40;;;18.90;99.90;;;;;;5052689;28;20115;-67
2021/08/24 02:45:33;;;;;;;3.78;1.58;;;18.90;99.90;;;;;;5053851;28;20393;-68
2021/08/24 02:48:03;;;;;;;5.50;1.80;;;18.70;99.90;;;;;;5053741;28;20040;-69
2021/08/24 02:50:30;;;;;;;9.18;1.70;;;18.50;99.90;;;;;;5054184;28;20029;-68
2021/08/24 02:52:56;;;;;;;6.28;2.00;;;18.40;99.90;;;;;;5053592;28;20432;-70
2021/08/24 02:55:22;;;;;;;7.93;1.80;;;18.40;99.90;;;;;;5052550;28;20025;-69
2021/08/24 02:57:48;;;;;;;3.95;1.80;;;18.40;99.90;;;;;;5053505;28;20034;-69
2021/08/24 03:00:15;;;;;;;3.58;2.13;;;18.40;99.90;;;;;;5054715;28;20457;-70
2021/08/24 03:02:41;;;;;;;7.78;2.65;;;18.30;99.90;;;;;;5073608;28;20464;-69
2021/08/24 03:05:08;;;;;;;7.43;2.72;;;18.20;99.90;;;;;;5073543;28;20032;-70
2021/08/24 03:07:36;;;;;;;5.15;2.08;;;18.20;99.90;;;;;;5073817;28;20469;-68
2021/08/24 03:10:07;;;;;;;5.30;1.67;;;18.10;99.90;;;;;;5055580;28;20033;-69
2021/08/24 03:12:42;;;;;;;3.90;2.53;;;18.00;99.90;;;;;;5055313;28;20032;-69
2021/08/24 03:15:16;;;;;;;4.68;1.85;;;18.00;99.90;;;;;;5073525;28;20071;-69
2021/08/24 03:17:48;;;;;;;3.58;2.25;;;18.10;99.90;;;;;;5055420;28;20025;-71
2021/08/24 03:20:18;;;;;;;5.80;1.70;;;18.20;99.90;;;;;;5073334;28;20028;-69
2021/08/24 03:22:45;;;;;;;2.72;2.10;;;18.30;99.90;;;;;;5072846;28;20461;-70
2021/08/24 03:25:13;;;;;;;2.38;1.80;;;18.40;99.90;;;;;;5073313;28;20047;-68
2021/08/24 03:27:43;;;;;;;3.10;1.80;;;18.40;99.90;;;;;;5055278;28;20028;-69
2021/08/24 03:30:13;;;;;;;5.00;1.80;;;18.40;99.90;;;;;;5055313;28;20110;-69
2021/08/24 03:32:38;;;;;;;1.25;1.13;;;18.40;99.90;;;;;;5055114;28;20388;-69
2021/08/24 03:35:05;;;;;;;1.80;1.52;;;18.40;99.90;;;;;;5073119;28;20150;-69
2021/08/24 03:37:31;;;;;;;3.08;1.50;;;18.40;99.90;;;;;;5073425;28;20032;-69
2021/08/24 03:39:57;;;;;;;2.50;1.60;;;18.30;99.90;;;;;;5073066;28;20463;-70
2021/08/24 03:42:23;;;;;;;2.25;1.60;;;18.30;99.90;;;;;;5072766;28;20143;-69
2021/08/24 03:44:49;;;;;;;3.50;1.33;;;18.30;99.90;;;;;;5073014;28;20043;-69
2021/08/24 03:47:15;;;;;;;2.80;1.90;;;18.30;99.90;;;;;;5072801;28;20024;-68
2021/08/24 03:49:41;;;;;;;4.03;1.60;;;18.30;99.90;;;;;;5073002;28;20075;-69
2021/08/24 03:52:08;;;;;;;2.85;1.73;;;18.30;99.90;;;;;;5072965;28;20029;-69
2021/08/24 03:54:34;;;;;;;3.00;1.60;;;18.30;99.90;;;;;;5073017;28;20038;-69
2021/08/24 03:57:00;;;;;;;4.05;1.65;;;18.30;99.90;;;;;;5073025;28;20374;-70
2021/08/24 03:59:26;;;;;;;2.60;1.98;;;18.20;99.90;;;;;;5073190;28;20469;-70
2021/08/24 04:01:51;;;;;;;2.83;2.25;;;18.20;99.90;;;;;;5072732;28;20052;-69
2021/08/24 04:04:17;;;;;;;4.35;2.00;;;18.20;99.90;;;;;;5054859;28;20032;-69
2021/08/24 04:06:43;;;;;;;4.85;2.75;;;18.20;99.90;;;;;;5072878;28;20360;-69
2021/08/24 04:09:09;;;;;;;4.68;2.28;;;18.20;99.90;;;;;;5054628;28;20029;-70
2021/08/24 04:11:35;;;;;;;5.57;2.72;;;18.30;99.90;;;;;;5072527;28;20043;-69
2021/08/24 04:14:01;;;;;;;7.13;2.88;;;18.30;99.90;;;;;;5054770;28;20125;-69
2021/08/24 04:16:27;;;;;;;4.93;2.60;;;18.30;99.90;;;;;;5072862;28;20113;-70
2021/08/24 04:18:53;;;;;;;3.83;2.35;;;18.30;99.90;;;;;;5073016;28;20033;-70
2021/08/24 04:21:20;;;;;;;6.13;3.17;;;18.30;99.90;;;;;;5072629;28;20071;-70
2021/08/24 04:23:47;;;;;;;6.22;3.03;;;18.30;99.90;;;;;;5072728;28;20028;-70
2021/08/24 04:26:14;;;;;;;13.07;3.35;;;18.30;99.90;;;;;;5072423;28;20495;-71
2021/08/24 04:28:40;;;;;;;3.35;3.05;;;18.20;99.90;;;;;;5072653;28;20021;-71
2021/08/24 04:31:09;;;;;;;4.13;3.55;;;18.20;99.90;;;;;;5072578;28;20487;-70
2021/08/24 04:33:35;;;;;;;3.88;3.35;;;18.20;99.90;;;;;;5073722;28;20031;-70
2021/08/24 04:36:01;;;;;;;3.63;3.33;;;18.30;99.90;;;;;;5076430;28;20427;-70
2021/08/24 04:38:28;;;;;;;3.67;3.35;;;18.30;99.90;;;;;;5076465;28;20079;-69
2021/08/24 04:40:54;;;;;;;5.07;3.78;;;18.30;99.90;;;;;;5076249;28;20129;-69
2021/08/24 04:43:20;;;;;;;6.13;3.85;;;18.30;99.90;;;;;;5058357;28;20091;-69
2021/08/24 04:45:47;;;;;;;4.65;3.45;;;18.30;99.90;;;;;;5058244;28;20035;-68
2021/08/24 04:48:13;;;;;;;5.05;3.58;;;18.30;99.90;;;;;;5076244;28;20079;-71
2021/08/24 04:50:40;;;;;;;5.88;4.57;;;18.30;99.90;;;;;;5076159;28;20477;-68
2021/08/24 04:53:06;;;;;;;5.57;4.22;;;18.30;99.90;;;;;;5058117;28;20477;-70
2021/08/24 04:55:33;;;;;;;8.88;5.20;;;18.30;99.90;;;;;;5075773;28;20025;-69
2021/08/24 04:58:01;;;;;;;7.03;4.43;;;18.30;99.90;;;;;;5075497;28;20028;-70
2021/08/24 05:00:28;;;;;;;5.45;4.95;;;18.40;99.90;;;;;;5075758;28;20492;-71
2021/08/24 05:02:53;;;;;;;8.55;5.40;;;18.40;99.90;;;;;;5075574;28;20032;-67
2021/08/24 05:05:20;;;;;;;6.75;4.28;;;18.30;99.90;;;;;;5075889;28;20488;-69
2021/08/24 05:07:46;;;;;;;6.90;4.80;;;18.30;99.90;;;;;;5075915;28;20044;-68
2021/08/24 05:10:11;;;;;;;5.15;4.60;;;18.30;99.90;;;;;;5075869;28;20465;-68
2021/08/24 05:12:37;;;;;;;5.93;4.75;;;18.30;99.90;;;;;;5057439;28;20034;-68
2021/08/24 05:15:05;;;;;;;7.63;5.63;;;18.30;99.90;;;;;;5075697;28;20036;-68
2021/08/24 05:17:31;;;;;;;8.60;4.95;;;18.40;99.90;;;;;;5075783;28;20477;-69
2021/08/24 05:19:56;;;;;;;5.85;5.25;;;18.40;99.90;;;;;;5075582;28;20036;-69
2021/08/24 05:22:22;;;;;;;12.75;6.05;;;18.40;99.90;;;;;;5075430;28;20040;-68
2021/08/24 05:24:48;;;;;;;9.43;5.32;;;18.40;99.90;;;;;;5075463;28;20056;-70
2021/08/24 05:27:14;;;;;;;5.72;5.13;;;18.50;99.90;;;;;;5057559;28;20032;-68
2021/08/24 05:29:40;;;;;;;7.82;6.45;;;18.50;99.90;;;;;;5075379;28;20445;-70
2021/08/24 05:32:07;;;;;;;6.10;5.40;;;18.50;99.90;;;;;;5075278;28;20532;-68
2021/08/24 05:34:32;;;;;;;8.10;4.65;;;18.50;99.90;;;;;;5075263;28;20035;-69
2021/08/24 05:36:58;;;;;;;6.80;5.47;;;18.60;99.90;;;;;;5075457;28;20016;-69
2021/08/24 05:39:24;;;;;;;7.15;5.53;;;18.50;99.90;;;;;;5075264;28;20119;-69
2021/08/24 05:41:50;;;;;;;9.25;6.93;;;18.50;99.90;;;;;;5057073;28;20542;-68
2021/08/24 05:44:16;;;;;;;8.35;7.43;;;18.60;99.90;;;;;;5056793;28;20029;-70
2021/08/24 05:46:42;;;;;;;11.68;6.60;;;18.60;99.90;;;;;;5075338;28;20032;-68
2021/08/24 05:49:09;;;;;;;8.80;6.22;;;;;;;;;;5075087;28;20477;-69
2021/08/24 05:51:37;;;;;;;11.20;7.22;;;18.60;99.90;;;;;;5074984;28;20582;-68
2021/08/24 05:54:03;;;;;;;7.72;6.35;;;18.70;99.90;;;;;;5056923;28;20480;-69
2021/08/24 05:56:30;;;;;;;10.25;7.55;;;18.80;99.90;;;;;;5074641;28;20487;-66
2021/08/24 05:58:56;;;;;;;10.50;8.00;;;18.80;99.90;;;;;;5074962;28;20024;-66
2021/08/24 06:01:28;;;;;;;12.00;7.32;;;18.90;99.90;;;;;;5074538;28;20054;-66
2021/08/24 06:03:54;;;;;;;7.07;5.45;;;18.90;99.90;;;;;;5056756;28;20411;-66
2021/08/24 06:06:24;;;;;;;6.05;5.45;;;18.90;99.90;;;;;;5074718;28;20040;-64
2021/08/24 06:08:51;;;;;;;6.63;5.63;;;18.90;99.90;;;;;;5055226;28;20064;-66
2021/08/24 06:11:37;;;;;;;7.55;5.32;;;18.90;99.90;;;;;;5056699;28;20055;-64
2021/08/24 06:14:04;;;;;;;7.60;5.10;;;19.00;99.90;;;;;;5074622;28;20066;-65
2021/08/24 06:16:31;;;;;;;7.32;5.40;;;19.00;99.90;;;;;;5056572;28;20028;-69
2021/08/24 06:18:57;;;;;;;5.72;4.90;;;19.10;99.90;;;;;;5074195;28;20103;-65
2021/08/24 06:21:23;;;;;;;7.10;4.85;;;19.10;99.90;;;;;;5073973;28;20464;-66
2021/08/24 06:27:11;;;;;;;7.90;5.47;;;19.30;99.90;;;;;;5070840;28;20039;-69
2021/08/24 06:29:37;;;;;;;6.85;4.93;;;19.50;99.90;;;;;;5072901;28;20028;-70
2021/08/24 06:32:05;;;;;;;5.38;4.88;;;19.60;99.90;;;;;;5054582;28;20079;-69
2021/08/24 06:34:33;;;;;;;5.60;5.10;;;19.60;99.90;;;;;;5072866;28;20021;-69
2021/08/24 06:36:59;;;;;;;5.45;4.93;;;19.60;99.90;;;;;;5072974;28;20063;-66
2021/08/24 06:39:25;;;;;;;6.32;5.18;;;19.70;99.90;;;;;;5073211;28;20516;-68
2021/08/24 06:41:51;;;;;;;5.75;5.20;;;19.70;99.90;;;;;;5073941;28;20159;-71
2021/08/24 06:44:17;;;;;;;7.88;6.20;;;19.80;99.90;;;;;;5073941;28;20465;-68
2021/08/24 06:46:43;;;;;;;10.55;5.82;;;19.80;99.90;;;;;;5055951;28;20053;-68
2021/08/24 06:49:09;;;;;;;8.88;5.60;;;19.90;99.90;;;;;;5073645;28;20114;-67
2021/08/24 06:51:36;;;;;;;8.85;6.07;;;20.00;99.90;;;;;;5055899;28;20032;-68
2021/08/24 06:54:03;;;;;;;8.05;5.72;;;20.00;99.90;;;;;;5055862;28;20056;-67
2021/08/24 06:56:31;;;;;;;7.53;5.25;;;20.00;99.90;;;;;;5072997;28;20032;-68
2021/08/24 06:58:58;;;;;;;9.35;6.18;;;20.00;99.90;;;;;;5055635;28;20051;-68
2021/08/24 07:01:25;;;;;;;8.35;5.45;;;20.00;99.90;;;;;;5073462;28;20044;-68
2021/08/24 07:03:51;;;;;;;7.30;6.07;;;19.90;99.90;;;;;;5073575;28;20112;-67
2021/08/24 07:06:17;;;;;;;6.82;5.97;;;19.90;99.90;;;;;;5055540;28;20059;-68
2021/08/24 07:08:43;;;;;;;5.93;5.32;;;19.90;99.90;;;;;;5073476;28;20032;-67
2021/08/24 07:11:10;;;;;;;6.68;5.97;;;19.90;99.90;;;;;;5055521;28;20082;-69
2021/08/24 07:13:36;;;;;;;7.70;4.53;;;20.00;99.90;;;;;;5073373;28;20035;-70
2021/08/24 07:16:07;;;;;;;13.70;4.45;;;20.20;99.90;;;;;;5073236;28;20051;-70
2021/08/24 07:18:34;;;;;;;8.10;3.28;;;20.50;99.90;;;;;;5073411;28;20108;-71
2021/08/24 07:21:01;;;;;;;7.07;3.67;;;21.20;99.90;;;;;;5055100;28;20033;-71
2021/08/24 07:23:28;;;;;;;13.07;3.03;;;21.40;99.90;;;;;;5073273;28;20450;-70
2021/08/24 07:25:54;;;;;;;7.88;3.30;;;21.80;99.90;;;;;;5073524;28;20047;-70
2021/08/24 07:28:19;;;;;;;5.45;3.60;;;22.00;99.90;;;;;;5073168;28;20033;-68
2021/08/24 07:30:48;;;;;;;9.10;3.50;;;22.00;99.90;;;;;;5073076;28;20051;-69
2021/08/24 07:33:15;;;;;;;7.00;3.20;;;21.90;99.90;;;;;;5073000;28;20028;-71
2021/08/24 07:35:42;;;;;;;4.45;3.40;;;22.00;99.90;;;;;;5073123;28;20111;-70
2021/08/24 07:38:07;;;;;;;6.45;4.15;;;22.00;99.90;;;;;;5073271;28;20040;-71
2021/08/24 07:40:33;;;;;;;7.40;3.80;;;21.90;99.90;;;;;;5071359;28;20024;-74
2021/08/24 07:42:59;;;;;;;5.68;4.28;;;21.70;99.90;;;;;;5054718;28;20484;-70
2021/08/24 07:45:26;;;;;;;7.03;4.22;;;21.60;99.90;;;;;;5073030;28;20029;-72
2021/08/24 07:47:52;;;;;;;5.88;3.20;;;21.60;99.90;;;;;;5073086;28;20035;-77
2021/08/24 07:50:18;;;;;;;10.80;3.50;;;;;;;;;;5073012;28;20028;-74
2021/08/24 07:52:44;;;;;;;10.55;3.50;;;22.10;99.70;;;;;;5054908;28;20469;-75
2021/08/24 07:55:11;;;;;;;5.70;3.47;;;22.00;99.90;;;;;;5072923;28;20035;-73
2021/08/24 07:57:37;;;;;;;9.88;4.18;;;22.10;99.30;;;;;;5072862;28;20523;-72
2021/08/24 08:00:04;;;;;;;5.47;4.38;;;22.00;99.90;;;;;;5072808;28;20063;-72
2021/08/24 08:02:29;;;;;;;7.63;4.35;;;21.70;99.50;;;;;;5072365;28;20135;-71
2021/08/24 08:04:55;;;;;;;5.95;4.00;;;21.70;99.90;;;;;;5054754;28;20174;-70
2021/08/24 08:07:21;;;;;;;9.95;4.10;;;21.80;99.90;;;;;;5073532;28;20027;-71
2021/08/24 08:09:49;;;;;;;10.10;5.38;;;21.70;99.90;;;;;;5058969;28;20032;-69
2021/08/24 08:12:19;;;;;;;12.48;7.03;;;21.60;99.90;;;;;;5058336;28;20536;-69
2021/08/24 08:14:45;;;;;;;7.43;3.97;;;21.50;99.90;;;;;;5058855;28;20029;-70
2021/08/24 08:17:11;;;;;;;6.18;4.30;;;21.60;99.90;;;;;;5076736;28;20047;-72
2021/08/24 08:19:38;;;;;;;6.93;4.90;;;21.60;99.90;;;;;;5076779;28;20369;-69
2021/08/24 08:22:05;;;;;;;5.63;5.13;;;21.60;99.90;;;;;;5075948;28;20039;-69
2021/08/24 08:24:31;;;;;;;5.32;4.82;;;21.30;99.90;;;;;;5076621;28;20078;-69
2021/08/24 08:26:57;;;;;;;7.00;5.40;;;21.10;99.90;;;;;;5076500;28;20449;-70
2021/08/24 08:29:23;;;;;;;4.95;4.45;;;21.00;99.90;;;;;;5076598;28;20047;-70
2021/08/24 08:31:49;;;;;;;5.07;4.63;;;20.90;99.90;;;;;;5076234;28;20056;-68
2021/08/24 08:34:18;;;;;;;8.45;5.25;;;20.80;99.90;;;;;;5076041;28;20024;-69
2021/08/24 08:36:45;;;;;;;6.43;5.60;;;20.90;99.90;;;;;;5076486;28;20107;-70
2021/08/24 08:39:13;;;;;;;5.63;5.13;;;20.80;99.90;;;;;;5076415;28;20025;-67
2021/08/24 08:42:23;;;;;;;8.77;6.53;;;20.60;99.90;;;;;;5076272;28;20033;-70
2021/08/24 08:45:07;;;;;;;5.65;4.32;;;20.50;99.90;;;;;;5058283;28;20029;-70
2021/08/24 08:47:39;;;;;;;8.35;4.57;;;20.70;99.90;;;;;;5076222;28;20024;-69
2021/08/24 08:50:46;;;;;;;6.35;5.05;;;20.70;99.90;;;;;;5076182;28;20099;-68
2021/08/24 08:53:40;;;;;;;5.00;3.88;;;20.90;99.90;;;;;;5076141;28;20032;-68
2021/08/24 08:56:31;;;;;;;8.32;4.13;;;21.00;99.90;;;;;;5075837;28;20020;-69
2021/08/24 08:59:29;;;;;;;7.20;4.88;;;21.00;99.90;;;;;;5058114;28;20074;-70
2021/08/24 09:02:42;;;;;;;6.20;4.20;;;21.10;99.90;;;;;;5075360;28;20052;-70
2021/08/24 09:05:09;;;;;;;6.13;4.65;;;21.10;99.90;;;;;;5066843;28;20043;-72
2021/08/24 09:07:49;;;;;;;4.95;4.45;;;21.00;99.90;;;;;;5057856;28;20032;-70
2021/08/24 09:10:19;;;;;;;6.60;4.95;;;21.00;99.90;;;;;;5075811;28;20048;-71
2021/08/24 09:12:53;;;;;;;4.10;3.70;;;21.00;99.90;;;;;;5057731;28;20029;-70
2021/08/24 09:15:27;;;;;;;6.63;3.35;;;21.00;99.90;;;;;;5075832;28;20036;-70
2021/08/24 09:17:54;;;;;;;5.10;3.90;;;21.20;99.90;;;;;;5075936;28;20031;-71
2021/08/24 09:20:26;;;;;;;4.78;3.47;;;21.30;99.90;;;;;;5074970;28;20024;-70
2021/08/24 09:22:53;;;;;;;2.95;2.75;;;21.40;99.90;;;;;;5057531;28;20041;-70
2021/08/24 09:25:34;;;;;;;4.05;3.65;;;21.60;98.30;;;;;;5075512;28;20030;-71
2021/08/24 09:28:11;;;;;;;2.80;2.60;;;21.70;99.50;;;;;;5057600;28;20071;-72
2021/08/24 09:30:42;;;;;;;4.75;3.20;;;21.70;95.80;;;;;;5075360;28;20032;-70
2021/08/24 09:33:11;;;;;;;5.82;3.67;;;21.60;96.80;;;;;;5057507;28;20025;-71
2021/08/24 09:35:42;;;;;;;6.18;4.97;;;21.60;97.00;;;;;;5075311;28;20032;-69
2021/08/24 09:38:18;;;;;;;5.65;4.57;;;21.70;98.40;;;;;;5057411;28;20059;-69
2021/08/24 09:40:49;;;;;;;5.68;4.70;;;21.80;97.80;;;;;;5056031;28;20039;-70
2021/08/24 09:43:29;;;;;;;5.73;4.60;;;21.80;98.00;;;;;;5074528;28;20029;-70
2021/08/24 09:45:59;;;;;;;9.98;4.82;;;21.70;97.60;;;;;;5075133;28;20257;-69
2021/08/24 09:48:27;;;;;;;5.07;4.05;;;21.50;97.40;;;;;;5075131;28;20060;-72
2021/08/24 09:50:53;;;;;;;5.65;5.05;;;21.40;98.10;;;;;;5075053;28;20503;-71
2021/08/24 09:53:32;;;;;;;5.28;4.78;;;21.20;99.00;;;;;;5075056;28;20054;-71
2021/08/24 09:56:01;;;;;;;4.97;4.47;;;21.20;99.90;;;;;;5075001;28;20021;-71
2021/08/24 09:58:36;;;;;;;6.28;5.68;;;21.30;99.90;;;;;;5056578;28;20063;-71
2021/08/24 10:01:05;;;;;;;6.95;5.45;;;21.60;99.90;;;;;;5056472;28;20056;-72
2021/08/24 10:03:35;;;;;;;5.80;5.07;;;21.90;99.90;;;;;;5075096;28;20071;-68
2021/08/24 10:06:22;;;;;;;6.93;5.17;;;21.90;99.50;;;;;;5074846;28;20035;-72
2021/08/24 10:08:54;;;;;;;7.72;5.60;;;21.80;97.70;;;;;;5074907;28;20350;-71
2021/08/24 10:11:32;;;;;;;7.28;5.18;;;22.00;98.70;;;;;;5074748;28;20032;-72
2021/08/24 10:14:17;;;;;;;6.03;5.10;;;21.80;96.90;;;;;;5074527;28;20454;-71
2021/08/24 10:16:45;;;;;;;8.07;5.50;;;21.80;97.20;;;;;;5074389;28;20067;-70
2021/08/24 10:19:21;;;;;;;6.32;5.30;;;21.70;96.90;;;;;;5074566;28;20480;-70
2021/08/24 10:22:00;;;;;;;6.40;5.28;;;21.90;97.30;;;;;;5073993;28;20059;-69
2021/08/24 10:24:31;;;;;;;5.68;4.63;;;22.00;98.20;;;;;;5074044;28;20474;-72
2021/08/24 10:27:04;;;;;;;6.32;4.95;;;21.90;95.90;;;;;;5072707;28;20042;-70
2021/08/24 10:29:36;;;;;;;9.82;4.63;;;22.00;96.10;;;;;;5073073;28;20067;-69
2021/08/24 10:32:11;;;;;;;5.60;4.78;;;22.00;96.00;;;;;;5073230;28;20028;-70
2021/08/24 10:34:45;;;;;;;6.15;4.97;;;22.10;96.00;;;;;;5074252;28;20078;-68
2021/08/24 10:37:26;;;;;;;5.70;5.10;;;22.20;95.00;;;;;;5056137;28;20419;-69
2021/08/24 10:39:55;;;;;;;5.10;4.65;;;22.20;94.20;;;;;;5074072;28;20048;-71
2021/08/24 10:42:29;;;;;;;5.45;4.20;;;22.30;95.00;;;;;;5073835;28;20035;-71
2021/08/24 10:45:02;;;;;;;3.85;2.85;;;22.40;94.00;;;;;;5055941;28;20029;-70
2021/08/24 10:47:43;;;;;;;5.40;3.28;;;22.50;92.10;;;;;;5073867;28;20094;-71
2021/08/24 10:50:29;;;;;;;3.55;3.25;;;22.70;92.10;;;;;;5073796;28;20035;-72
2021/08/24 10:53:03;;;;;;;5.95;3.70;;;22.80;92.10;;;;;;5073418;28;20522;-72
2021/08/24 10:55:34;;;;;;;5.95;4.93;;;22.80;92.50;;;;;;5073673;28;20515;-68
2021/08/24 10:58:00;;;;;;;6.57;4.97;;;22.70;92.60;;;;;;5073551;28;20032;-68
2021/08/24 11:00:43;;;;;;;5.40;5.00;;;22.60;92.90;;;;;;5073618;28;20033;-68
2021/08/24 11:03:12;;;;;;;6.40;5.70;;;22.60;93.70;;;;;;5073658;28;20110;-72
2021/08/24 11:05:57;;;;;;;5.85;5.15;;;22.80;94.40;;;;;;5073570;28;20032;-70
2021/08/24 11:08:42;;;;;;;4.93;4.43;;;22.80;92.70;;;;;;5055275;28;20081;-71
2021/08/24 11:11:45;;;;;;;7.78;4.70;;;22.80;92.80;;;;;;5073500;28;20025;-70
2021/08/24 11:14:16;;;;;;;5.13;3.42;;;22.80;91.80;;;;;;5055522;28;20067;-70
2021/08/24 11:16:51;;;;;;;4.80;4.40;;;22.80;91.30;;;;;;5073212;28;20499;-72
2021/08/24 11:19:23;;;;;;;5.22;4.10;;;22.70;91.80;;;;;;5055286;28;20024;-73
2021/08/24 11:22:39;;;;;;;5.63;4.05;;;22.50;92.50;;;;;;5073533;28;20036;-73
2021/08/24 11:25:22;;;;;;;5.50;3.78;;;22.40;91.80;;;;;;5059945;28;20044;-69
2021/08/24 11:28:03;;;;;;;5.82;4.10;;;22.40;92.60;;;;;;5073275;28;20035;-70
2021/08/24 11:30:34;;;;;;;4.23;3.83;;;22.40;93.20;;;;;;5073379;28;20172;-70
2021/08/24 11:33:10;;;;;;;4.30;3.60;;;22.40;93.30;;;;;;5073304;28;20808;-71
2021/08/24 11:35:54;;;;;;;4.43;3.55;;;22.30;91.70;;;;;;5072934;28;20488;-70
2021/08/24 11:38:27;;;;;;;4.03;3.33;;;22.20;92.70;;;;;;5073195;28;20465;-70
2021/08/24 11:41:05;;;;;;;4.57;3.20;;;22.30;91.90;;;;;;5073081;28;20020;-70
2021/08/24 11:44:06;;;;;;;4.25;3.58;;;22.10;92.00;;;;;;5072782;28;20058;-71
2021/08/24 11:46:40;;;;;;;4.07;3.57;;;22.00;92.30;;;;;;5072678;28;20029;-72
2021/08/24 11:49:23;;;;;;;3.45;3.10;;;21.90;92.40;;;;;;5072752;28;20044;-70
2021/08/24 11:52:12;;;;;;;3.80;3.08;;;21.90;92.60;;;;;;5070347;28;20157;-69
2021/08/24 11:54:59;;;;;;;3.08;2.85;;;21.80;92.40;;;;;;5021385;28;20040;-67
2021/08/24 11:57:37;;;;;;;4.80;2.92;;;21.80;93.40;;;;;;5072928;28;20028;-69
2021/08/24 12:00:05;;;;;;;4.05;2.80;;;21.90;92.70;;;;;;5054867;28;20027;-68
2021/08/24 12:02:37;;;;;;;4.22;3.33;;;21.90;92.90;;;;;;5090585;28;20048;-67
2021/08/24 12:05:12;;;;;;;2.95;2.72;;;22.00;93.00;;;;;;5093221;28;20078;-68
2021/08/24 12:07:40;;;;;;;4.80;2.90;;;22.00;92.60;;;;;;5074807;28;20028;-70
2021/08/24 12:10:24;;;;;;;2.70;2.50;;;22.00;92.30;;;;;;5093069;28;20028;-72
2021/08/24 12:13:04;;;;;;;2.75;2.53;;;22.00;92.40;;;;;;5072439;28;20032;-69
2021/08/24 12:15:43;;;;;;;2.40;2.15;;;22.10;92.30;;;;;;5075280;28;20036;-68
2021/08/24 12:18:12;;;;;;;2.60;2.40;;;22.20;92.60;;;;;;5055138;28;20035;-70
2021/08/24 12:20:40;;;;;;;3.90;2.40;;;22.40;94.20;;;;;;5074129;28;20025;-71
2021/08/24 12:23:10;;;;;;;2.60;2.40;;;22.40;90.20;;;;;;5054448;28;20463;-69
2021/08/24 12:25:44;;;;;;;3.63;2.25;;;22.40;90.00;;;;;;5072503;28;20035;-69
2021/08/24 12:28:14;;;;;;;2.65;2.42;;;22.50;90.70;;;;;;5072459;28;20031;-67
2021/08/24 12:30:58;;;;;;;2.92;2.63;;;22.40;90.70;;;;;;5072768;28;20020;-69
2021/08/24 12:33:42;;;;;;;3.20;2.47;;;22.40;90.20;;;;;;5072519;28;20443;-70
2021/08/24 12:36:16;;;;;;;3.08;2.33;;;22.50;90.10;;;;;;5071041;28;20029;-68
2021/08/24 12:38:55;;;;;;;2.60;2.40;;;22.30;89.80;;;;;;5071015;28;20058;-68
2021/08/24 12:41:36;;;;;;;3.15;2.72;;;22.60;87.50;;;;;;5053256;28;20381;-67
2021/08/24 12:44:14;;;;;;;3.03;2.42;;;22.60;90.10;;;;;;5071404;28;20534;-70
2021/08/24 12:46:45;;;;;;;2.60;2.28;;;22.70;89.50;;;;;;5053289;28;20039;-70
2021/08/24 12:49:24;;;;;;;2.28;2.08;;;22.70;89.70;;;;;;5071198;28;20029;-68
2021/08/24 12:51:51;;;;;;;7.65;2.53;;;22.90;99.90;;;;;;5072121;28;20067;-68
2021/08/24 12:54:20;;;;;;;4.00;2.13;;;22.90;88.20;;;;;;5072590;28;20033;-67
2021/08/24 12:56:48;;;;;;;3.60;2.55;;;;;;;;;;5075980;28;20530;-67
2021/08/24 12:59:33;;;;;;;5.63;2.65;;;23.30;86.80;;;;;;5075988;28;20024;-67
2021/08/24 13:02:13;;;;;;;2.67;2.42;;;23.10;86.20;;;;;;5057813;28;20052;-69
2021/08/24 13:04:52;;;;;;;4.03;2.53;;;23.10;86.40;;;;;;5075656;28;20059;-66
2021/08/24 13:07:31;;;;;;;5.35;2.97;;;23.20;87.90;;;;;;5075666;28;20078;-69
2021/08/24 13:10:10;;;;;;;5.85;3.50;;;23.20;88.00;;;;;;5057801;28;20025;-65
2021/08/24 13:12:40;;;;;;;3.72;3.20;;;23.40;88.40;;;;;;5075541;28;20366;-67
2021/08/24 13:15:24;;;;;;;5.45;3.58;;;23.50;87.70;;;;;;5057722;28;20029;-67